createdAt,value
2019-02-02T00:01:08.266Z,0
2019-02-02T00:02:17.952Z,0
2019-02-02T00:03:27.374Z,0
2019-02-02T00:04:37.049Z,0
2019-02-02T00:05:46.720Z,0
2019-02-02T00:06:56.393Z,0
2019-02-02T00:08:06.082Z,0
2019-02-02T00:09:16.004Z,0
2019-02-02T00:10:25.419Z,0
2019-02-02T00:11:35.381Z,0
2019-02-02T00:12:45.050Z,0
2019-02-02T00:13:54.234Z,0
2019-02-02T00:15:03.912Z,0
2019-02-02T00:16:13.844Z,0
2019-02-02T00:17:23.265Z,0
2019-02-02T00:18:32.683Z,0
2019-02-02T00:19:42.108Z,0
2019-02-02T00:20:51.550Z,0
2019-02-02T00:22:01.224Z,0
2019-02-02T00:23:11.276Z,0
2019-02-02T00:24:20.862Z,0
2019-02-02T00:25:30.789Z,0
2019-02-02T00:26:40.461Z,0
2019-02-02T00:27:51.094Z,0
2019-02-02T00:29:00.525Z,0
2019-02-02T00:30:10.196Z,0
2019-02-02T00:31:19.890Z,0
2019-02-02T00:32:29.567Z,0
2019-02-02T00:33:39.490Z,0
2019-02-02T00:34:48.658Z,0
2019-02-02T00:35:58.326Z,0
2019-02-02T00:37:08.609Z,0
2019-02-02T00:38:18.530Z,0
2019-02-02T00:39:28.215Z,0
2019-02-02T00:40:37.883Z,0
2019-02-02T00:41:46.875Z,0
2019-02-02T00:42:56.548Z,0
2019-02-02T00:44:06.468Z,0
2019-02-02T00:45:15.889Z,0
2019-02-02T00:46:25.303Z,0
2019-02-02T00:47:35.221Z,0
2019-02-02T00:48:45.177Z,0
2019-02-02T00:49:55.125Z,0
2019-02-02T00:51:04.798Z,0
2019-02-02T00:52:14.599Z,0
2019-02-02T00:53:24.530Z,0
2019-02-02T00:54:33.949Z,0
2019-02-02T00:55:43.621Z,0
2019-02-02T00:56:53.067Z,0
2019-02-02T00:58:03.659Z,0
2019-02-02T00:59:13.328Z,0
2019-02-02T01:00:23.010Z,0
2019-02-02T01:01:32.699Z,0
2019-02-02T01:02:42.371Z,0
2019-02-02T01:03:51.548Z,0
2019-02-02T01:05:01.262Z,0
2019-02-02T01:06:14.198Z,0
2019-02-02T01:07:23.875Z,0
2019-02-02T01:08:33.555Z,0
2019-02-02T01:09:43.229Z,0
2019-02-02T01:10:53.150Z,0
2019-02-02T01:12:02.570Z,0
2019-02-02T01:13:12.497Z,0
2019-02-02T01:14:22.192Z,0
2019-02-02T01:15:32.113Z,0
2019-02-02T01:16:41.534Z,0
2019-02-02T01:17:51.468Z,0
2019-02-02T01:19:01.151Z,0
2019-02-02T01:20:10.829Z,0
2019-02-02T01:21:20.749Z,0
2019-02-02T01:22:30.432Z,0
2019-02-02T01:23:40.360Z,0
2019-02-02T01:24:50.047Z,0
2019-02-02T01:25:59.844Z,0
2019-02-02T01:27:09.520Z,0
2019-02-02T01:28:18.958Z,0
2019-02-02T01:29:28.904Z,0
2019-02-02T01:30:38.576Z,0
2019-02-02T01:31:48.499Z,0
2019-02-02T01:32:58.180Z,0
2019-02-02T01:34:07.661Z,0
2019-02-02T01:35:17.338Z,0
2019-02-02T01:36:27.326Z,0
2019-02-02T01:37:37.010Z,0
2019-02-02T01:38:46.699Z,0
2019-02-02T01:39:56.629Z,0
2019-02-02T01:41:06.543Z,0
2019-02-02T01:42:16.463Z,0
2019-02-02T01:43:26.389Z,0
2019-02-02T01:44:36.071Z,0
2019-02-02T01:45:45.762Z,0
2019-02-02T01:46:55.427Z,0
2019-02-02T01:48:05.105Z,0
2019-02-02T01:49:14.782Z,0
2019-02-02T01:50:24.714Z,0
2019-02-02T01:51:34.391Z,0
2019-02-02T01:52:43.576Z,0
2019-02-02T01:53:53.490Z,0
2019-02-02T01:55:03.289Z,0
2019-02-02T01:56:12.962Z,0
2019-02-02T01:57:22.632Z,0
2019-02-02T01:58:32.320Z,0
2019-02-02T01:59:41.993Z,0
2019-02-02T02:00:52.002Z,0
2019-02-02T02:02:01.186Z,0
2019-02-02T02:03:10.861Z,0
2019-02-02T02:04:20.815Z,0
2019-02-02T02:05:30.766Z,0
2019-02-02T02:06:40.449Z,0
2019-02-02T02:07:50.129Z,0
2019-02-02T02:09:00.049Z,0
2019-02-02T02:10:09.725Z,0
2019-02-02T02:11:19.525Z,0
2019-02-02T02:12:29.444Z,0
2019-02-02T02:13:39.129Z,0
2019-02-02T02:14:49.048Z,0
2019-02-02T02:15:58.216Z,0
2019-02-02T02:17:07.908Z,0
2019-02-02T02:18:17.829Z,0
2019-02-02T02:19:27.759Z,0
2019-02-02T02:20:37.678Z,0
2019-02-02T02:21:47.126Z,0
2019-02-02T02:22:57.060Z,0
2019-02-02T02:24:06.754Z,0
2019-02-02T02:25:16.677Z,0
2019-02-02T02:26:26.100Z,0
2019-02-02T02:27:35.765Z,0
2019-02-02T02:28:45.697Z,0
2019-02-02T02:29:55.619Z,0
2019-02-02T02:31:05.590Z,0
2019-02-02T02:32:15.525Z,0
2019-02-02T02:33:25.578Z,0
2019-02-02T02:34:35.533Z,0
2019-02-02T02:35:45.470Z,0
2019-02-02T02:36:54.925Z,0
2019-02-02T02:38:04.860Z,0
2019-02-02T02:39:14.961Z,0
2019-02-02T02:40:24.671Z,0
2019-02-02T02:41:34.360Z,0
2019-02-02T02:42:44.046Z,0
2019-02-02T02:43:53.749Z,0
2019-02-02T02:45:03.513Z,0
2019-02-02T02:46:13.268Z,0
2019-02-02T02:47:23.202Z,0
2019-02-02T02:48:32.874Z,0
2019-02-02T02:49:42.791Z,0
2019-02-02T02:50:52.712Z,0
2019-02-02T02:52:02.226Z,0
2019-02-02T02:53:12.165Z,0
2019-02-02T02:54:21.982Z,0
2019-02-02T02:55:31.663Z,0
2019-02-02T02:56:41.349Z,0
2019-02-02T02:57:50.552Z,0
2019-02-02T02:58:59.981Z,0
2019-02-02T03:00:09.660Z,0
2019-02-02T03:01:19.092Z,0
2019-02-02T03:02:28.758Z,0
2019-02-02T03:03:38.507Z,0
2019-02-02T03:04:48.450Z,0
2019-02-02T03:05:58.387Z,0
2019-02-02T03:07:08.361Z,0
2019-02-02T03:08:17.907Z,0
2019-02-02T03:09:27.340Z,0
2019-02-02T03:10:37.282Z,0
2019-02-02T03:11:47.236Z,0
2019-02-02T03:12:57.208Z,0
2019-02-02T03:14:06.882Z,0
2019-02-02T03:15:16.945Z,0
2019-02-02T03:16:26.912Z,0
2019-02-02T03:17:35.844Z,0
2019-02-02T03:18:45.769Z,0
2019-02-02T03:19:55.702Z,0
2019-02-02T03:21:04.873Z,0
2019-02-02T03:22:14.815Z,0
2019-02-02T03:23:24.512Z,0
2019-02-02T03:24:34.220Z,0
2019-02-02T03:25:44.174Z,0
2019-02-02T03:26:53.888Z,0
2019-02-02T03:28:03.836Z,0
2019-02-02T03:29:13.675Z,0
2019-02-02T03:30:23.448Z,0
2019-02-02T03:31:33.176Z,0
2019-02-02T03:32:43.144Z,0
2019-02-02T03:33:52.882Z,0
2019-02-02T03:35:02.840Z,0
2019-02-02T03:36:12.777Z,0
2019-02-02T03:37:22.206Z,0
2019-02-02T03:38:31.643Z,0
2019-02-02T03:39:41.587Z,0
2019-02-02T03:40:51.273Z,0
2019-02-02T03:42:01.136Z,0
2019-02-02T03:43:10.562Z,0
2019-02-02T03:44:19.987Z,0
2019-02-02T03:45:29.682Z,0
2019-02-02T03:46:39.118Z,0
2019-02-02T03:47:48.795Z,0
2019-02-02T03:48:58.266Z,0
2019-02-02T03:50:08.216Z,0
2019-02-02T03:51:17.901Z,0
2019-02-02T03:52:27.847Z,0
2019-02-02T03:53:40.828Z,0
2019-02-02T03:54:51.039Z,0
2019-02-02T03:56:01.017Z,0
2019-02-02T03:57:10.956Z,0
2019-02-02T03:58:20.637Z,0
2019-02-02T03:59:30.078Z,0
2019-02-02T04:00:39.508Z,0
2019-02-02T04:01:49.511Z,0
2019-02-02T04:02:59.196Z,0
2019-02-02T04:04:09.134Z,0
2019-02-02T04:05:18.329Z,0
2019-02-02T04:06:28.289Z,0
2019-02-02T04:07:38.230Z,0
2019-02-02T04:08:48.179Z,0
2019-02-02T04:09:57.630Z,0
2019-02-02T04:11:07.576Z,0
2019-02-02T04:12:17.543Z,0
2019-02-02T04:13:27.233Z,0
2019-02-02T04:14:36.676Z,0
2019-02-02T04:15:46.360Z,0
2019-02-02T04:16:55.292Z,0
2019-02-02T04:18:04.960Z,0
2019-02-02T04:19:14.515Z,0
2019-02-02T04:20:24.548Z,0
2019-02-02T04:21:33.966Z,0
2019-02-02T04:22:45.090Z,0
2019-02-02T04:23:54.522Z,0
2019-02-02T04:25:04.246Z,0
2019-02-02T04:26:14.189Z,0
2019-02-02T04:27:24.118Z,0
2019-02-02T04:28:33.625Z,0
2019-02-02T04:29:43.549Z,0
2019-02-02T04:30:53.483Z,0
2019-02-02T04:32:03.399Z,0
2019-02-02T04:33:13.076Z,0
2019-02-02T04:34:22.750Z,0
2019-02-02T04:35:32.321Z,0
2019-02-02T04:36:42.239Z,0
2019-02-02T04:37:52.303Z,0
2019-02-02T04:39:02.104Z,0
2019-02-02T04:40:11.777Z,0
2019-02-02T04:41:21.695Z,0
2019-02-02T04:42:31.365Z,0
2019-02-02T04:43:40.845Z,0
2019-02-02T04:44:50.517Z,0
2019-02-02T04:46:00.187Z,0
2019-02-02T04:47:09.361Z,0
2019-02-02T04:48:19.282Z,0
2019-02-02T04:49:28.951Z,0
2019-02-02T04:50:38.385Z,0
2019-02-02T04:51:48.067Z,0
2019-02-02T04:52:57.998Z,0
2019-02-02T04:54:07.779Z,0
2019-02-02T04:55:16.960Z,0
2019-02-02T04:56:26.402Z,0
2019-02-02T04:57:36.075Z,0
2019-02-02T04:58:45.752Z,0
2019-02-02T04:59:55.431Z,0
2019-02-02T05:01:04.844Z,0
2019-02-02T05:02:14.770Z,0
2019-02-02T05:03:24.687Z,0
2019-02-02T05:04:34.396Z,0
2019-02-02T05:05:44.078Z,0
2019-02-02T05:06:54.007Z,0
2019-02-02T05:08:03.426Z,0
2019-02-02T05:09:13.137Z,0
2019-02-02T05:10:23.055Z,0
2019-02-02T05:11:32.232Z,0
2019-02-02T05:12:41.910Z,0
2019-02-02T05:13:51.348Z,0
2019-02-02T05:15:01.262Z,0
2019-02-02T05:16:10.693Z,0
2019-02-02T05:17:20.617Z,0
2019-02-02T05:18:30.548Z,0
2019-02-02T05:19:40.221Z,0
2019-02-02T05:20:49.895Z,0
2019-02-02T05:21:59.564Z,0
2019-02-02T05:23:09.520Z,0
2019-02-02T05:24:18.959Z,0
2019-02-02T05:25:28.629Z,0
2019-02-02T05:26:38.547Z,0
2019-02-02T05:27:48.531Z,0
2019-02-02T05:28:58.454Z,0
2019-02-02T05:30:08.400Z,0
2019-02-02T05:31:17.582Z,0
2019-02-02T05:32:27.006Z,0
2019-02-02T05:33:36.676Z,0
2019-02-02T05:34:46.601Z,0
2019-02-02T05:35:56.517Z,0
2019-02-02T05:37:06.191Z,0
2019-02-02T05:38:15.111Z,0
2019-02-02T05:39:25.030Z,0
2019-02-02T05:40:34.953Z,0
2019-02-02T05:41:44.876Z,0
2019-02-02T05:42:54.541Z,0
2019-02-02T05:44:03.720Z,0
2019-02-02T05:45:13.218Z,0
2019-02-02T05:46:22.384Z,0
2019-02-02T05:47:32.053Z,0
2019-02-02T05:48:41.978Z,0
2019-02-02T05:49:54.369Z,0
2019-02-02T05:51:03.790Z,0
2019-02-02T05:52:13.475Z,0
2019-02-02T05:53:23.402Z,0
2019-02-02T05:54:32.822Z,0
2019-02-02T05:55:42.501Z,0
2019-02-02T05:56:51.924Z,0
2019-02-02T05:58:01.602Z,0
2019-02-02T05:59:11.016Z,0
2019-02-02T06:00:20.693Z,0
2019-02-02T06:01:32.528Z,0
2019-02-02T06:02:41.961Z,0
2019-02-02T06:03:51.634Z,0
2019-02-02T06:05:01.556Z,0
2019-02-02T06:06:11.585Z,0
2019-02-02T06:07:21.025Z,0
2019-02-02T06:08:30.470Z,0
2019-02-02T06:09:40.142Z,0
2019-02-02T06:10:49.810Z,0
2019-02-02T06:11:59.752Z,0
2019-02-02T06:13:09.445Z,0
2019-02-02T06:14:19.127Z,0
2019-02-02T06:15:31.242Z,0
2019-02-02T06:16:40.933Z,0
2019-02-02T06:17:50.596Z,0
2019-02-02T06:19:00.027Z,0
2019-02-02T06:20:09.960Z,0
2019-02-02T06:21:19.131Z,0
2019-02-02T06:22:29.058Z,0
2019-02-02T06:23:39.000Z,0
2019-02-02T06:24:48.934Z,0
2019-02-02T06:25:58.394Z,0
2019-02-02T06:27:07.574Z,0
2019-02-02T06:28:16.746Z,0
2019-02-02T06:29:26.173Z,0
2019-02-02T06:30:36.088Z,0
2019-02-02T06:31:45.764Z,0
2019-02-02T06:32:55.527Z,0
2019-02-02T06:34:05.198Z,0
2019-02-02T06:35:14.906Z,0
2019-02-02T06:36:24.861Z,0
2019-02-02T06:37:34.787Z,0
2019-02-02T06:38:44.468Z,0
2019-02-02T06:39:53.885Z,0
2019-02-02T06:41:03.809Z,0
2019-02-02T06:42:13.729Z,0
2019-02-02T06:43:23.399Z,0
2019-02-02T06:44:33.068Z,0
2019-02-02T06:45:42.503Z,0
2019-02-02T06:46:53.170Z,0
2019-02-02T06:48:03.204Z,0
2019-02-02T06:49:12.897Z,0
2019-02-02T06:50:22.331Z,0
2019-02-02T06:51:31.763Z,0
2019-02-02T06:52:41.468Z,0
2019-02-02T06:53:51.149Z,0
2019-02-02T06:55:00.835Z,0
2019-02-02T06:56:10.765Z,0
2019-02-02T06:57:20.438Z,0
2019-02-02T06:58:30.365Z,0
2019-02-02T06:59:40.052Z,0
2019-02-02T07:00:49.719Z,0
2019-02-02T07:01:59.396Z,0
2019-02-02T07:03:09.315Z,0
2019-02-02T07:04:19.230Z,0
2019-02-02T07:05:29.164Z,0
2019-02-02T07:06:38.594Z,0
2019-02-02T07:07:48.006Z,5
2019-02-02T07:08:57.439Z,5
2019-02-02T07:10:07.364Z,5
2019-02-02T07:11:16.806Z,5
2019-02-02T07:12:26.230Z,5
2019-02-02T07:13:38.454Z,5
2019-02-02T07:14:48.120Z,5
2019-02-02T07:15:57.548Z,5
2019-02-02T07:17:07.470Z,10
2019-02-02T07:18:17.135Z,10
2019-02-02T07:19:29.077Z,10
2019-02-02T07:20:39.208Z,10
2019-02-02T07:21:48.977Z,10
2019-02-02T07:22:58.657Z,15
2019-02-02T07:24:08.588Z,15
2019-02-02T07:25:18.261Z,15
2019-02-02T07:26:27.677Z,15
2019-02-02T07:27:37.368Z,15
2019-02-02T07:28:47.045Z,15
2019-02-02T07:29:56.966Z,15
2019-02-02T07:31:06.909Z,15
2019-02-02T07:32:16.589Z,15
2019-02-02T07:33:26.514Z,15
2019-02-02T07:34:35.734Z,20
2019-02-02T07:35:45.154Z,20
2019-02-02T07:36:54.832Z,20
2019-02-02T07:38:04.275Z,20
2019-02-02T07:39:13.694Z,20
2019-02-02T07:40:23.636Z,20
2019-02-02T07:41:33.559Z,25
2019-02-02T07:42:43.484Z,25
2019-02-02T07:43:52.902Z,25
2019-02-02T07:45:02.587Z,25
2019-02-02T07:46:24.036Z,30
2019-02-02T07:47:33.461Z,30
2019-02-02T07:48:43.406Z,30
2019-02-02T07:49:53.084Z,30
2019-02-02T07:51:03.009Z,35
2019-02-02T07:52:12.784Z,35
2019-02-02T07:53:22.207Z,40
2019-02-02T07:54:33.104Z,45
2019-02-02T07:55:43.206Z,45
2019-02-02T07:56:52.654Z,50
2019-02-02T07:58:02.571Z,55
2019-02-02T07:59:12.242Z,60
2019-02-02T08:00:23.180Z,60
2019-02-02T08:01:33.115Z,65
2019-02-02T08:02:42.795Z,65
2019-02-02T08:03:52.222Z,65
2019-02-02T08:05:01.901Z,65
2019-02-02T08:06:11.821Z,65
2019-02-02T08:07:21.346Z,65
2019-02-02T08:08:31.267Z,65
2019-02-02T08:09:41.213Z,65
2019-02-02T08:10:51.159Z,70
2019-02-02T08:12:01.098Z,70
2019-02-02T08:13:11.013Z,75
2019-02-02T08:14:20.940Z,75
2019-02-02T08:15:30.365Z,75
2019-02-02T08:16:40.035Z,80
2019-02-02T08:17:49.961Z,80
2019-02-02T08:18:59.909Z,85
2019-02-02T08:20:09.596Z,85
2019-02-02T08:21:19.017Z,85
2019-02-02T08:22:28.445Z,85
2019-02-02T08:23:38.130Z,85
2019-02-02T08:24:48.382Z,85
2019-02-02T08:25:57.557Z,90
2019-02-02T08:27:06.984Z,90
2019-02-02T08:28:16.415Z,90
2019-02-02T08:29:26.347Z,95
2019-02-02T08:30:38.513Z,95
2019-02-02T08:31:48.193Z,95
2019-02-02T08:32:58.132Z,95
2019-02-02T08:34:07.812Z,95
2019-02-02T08:35:17.487Z,95
2019-02-02T08:36:26.911Z,95
2019-02-02T08:37:36.338Z,95
2019-02-02T08:38:46.274Z,95
2019-02-02T08:39:55.947Z,90
2019-02-02T08:41:05.650Z,90
2019-02-02T08:42:15.571Z,90
2019-02-02T08:43:25.341Z,85
2019-02-02T08:44:36.594Z,85
2019-02-02T08:45:46.264Z,85
2019-02-02T08:46:55.942Z,85
2019-02-02T08:48:05.624Z,85
2019-02-02T08:49:15.317Z,85
2019-02-02T08:50:25.004Z,85
2019-02-02T08:51:34.703Z,85
2019-02-02T08:52:44.138Z,90
2019-02-02T08:53:53.562Z,90
2019-02-02T08:55:03.514Z,95
2019-02-02T08:56:13.321Z,95
2019-02-02T08:57:23.095Z,95
2019-02-02T08:58:33.450Z,95
2019-02-02T08:59:43.381Z,95
2019-02-02T09:01:03.603Z,100
2019-02-02T09:02:13.422Z,100
2019-02-02T09:03:22.896Z,105
2019-02-02T09:04:32.319Z,115
2019-02-02T09:05:42.349Z,120
2019-02-02T09:06:51.533Z,130
2019-02-02T09:08:00.591Z,135
2019-02-02T09:09:10.041Z,140
2019-02-02T09:10:19.483Z,140
2019-02-02T09:11:29.171Z,145
2019-02-02T09:12:39.097Z,145
2019-02-02T09:13:49.036Z,150
2019-02-02T09:14:58.705Z,155
2019-02-02T09:16:08.132Z,160
2019-02-02T09:17:17.307Z,165
2019-02-02T09:18:27.235Z,170
2019-02-02T09:19:36.678Z,175
2019-02-02T09:20:46.105Z,180
2019-02-02T09:21:55.526Z,185
2019-02-02T09:23:15.497Z,185
2019-02-02T09:24:25.187Z,190
2019-02-02T09:25:34.380Z,190
2019-02-02T09:26:44.057Z,195
2019-02-02T09:27:53.231Z,195
2019-02-02T09:29:03.162Z,205
2019-02-02T09:30:15.303Z,210
2019-02-02T09:31:25.822Z,215
2019-02-02T09:32:35.752Z,220
2019-02-02T09:33:44.935Z,215
2019-02-02T09:34:54.619Z,215
2019-02-02T09:36:04.306Z,215
2019-02-02T09:37:13.991Z,215
2019-02-02T09:38:23.927Z,220
2019-02-02T09:39:33.351Z,230
2019-02-02T09:40:43.033Z,230
2019-02-02T09:41:52.462Z,230
2019-02-02T09:43:02.509Z,230
2019-02-02T09:44:12.199Z,230
2019-02-02T09:45:21.879Z,235
2019-02-02T09:46:31.811Z,230
2019-02-02T09:47:41.764Z,225
2019-02-02T09:48:51.202Z,220
2019-02-02T09:50:00.377Z,215
2019-02-02T09:51:10.301Z,210
2019-02-02T09:52:19.993Z,215
2019-02-02T09:53:29.673Z,210
2019-02-02T09:54:39.343Z,210
2019-02-02T09:55:49.023Z,210
2019-02-02T09:56:58.512Z,215
2019-02-02T09:58:11.168Z,215
2019-02-02T09:59:21.101Z,220
2019-02-02T10:00:30.788Z,220
2019-02-02T10:01:40.471Z,230
2019-02-02T10:02:52.991Z,230
2019-02-02T10:04:02.417Z,235
2019-02-02T10:05:12.110Z,240
2019-02-02T10:06:22.033Z,245
2019-02-02T10:07:31.707Z,250
2019-02-02T10:08:41.637Z,260
2019-02-02T10:09:51.317Z,260
2019-02-02T10:11:01.062Z,260
2019-02-02T10:12:10.989Z,260
2019-02-02T10:13:20.682Z,255
2019-02-02T10:14:30.609Z,255
2019-02-02T10:15:40.042Z,250
2019-02-02T10:16:49.719Z,240
2019-02-02T10:17:59.653Z,240
2019-02-02T10:19:09.404Z,230
2019-02-02T10:20:18.839Z,220
2019-02-02T10:21:28.533Z,210
2019-02-02T10:22:38.211Z,200
2019-02-02T10:23:47.387Z,195
2019-02-02T10:24:57.308Z,195
2019-02-02T10:26:06.743Z,195
2019-02-02T10:27:16.427Z,195
2019-02-02T10:28:26.349Z,195
2019-02-02T10:29:36.280Z,195
2019-02-02T10:30:45.956Z,195
2019-02-02T10:31:55.896Z,195
2019-02-02T10:33:05.088Z,190
2019-02-02T10:34:16.901Z,190
2019-02-02T10:35:26.074Z,185
2019-02-02T10:36:36.025Z,180
2019-02-02T10:37:45.699Z,180
2019-02-02T10:38:55.164Z,180
2019-02-02T10:40:04.354Z,175
2019-02-02T10:41:14.037Z,175
2019-02-02T10:42:23.461Z,180
2019-02-02T10:43:32.648Z,185
2019-02-02T10:44:42.078Z,190
2019-02-02T10:45:51.256Z,190
2019-02-02T10:47:00.691Z,190
2019-02-02T10:48:10.374Z,190
2019-02-02T10:49:19.806Z,195
2019-02-02T10:50:28.997Z,195
2019-02-02T10:51:38.456Z,205
2019-02-02T10:52:48.400Z,205
2019-02-02T10:53:58.336Z,205
2019-02-02T10:55:08.258Z,210
2019-02-02T10:56:17.706Z,215
2019-02-02T10:57:26.885Z,210
2019-02-02T10:58:35.813Z,210
2019-02-02T10:59:48.689Z,215
2019-02-02T11:00:58.586Z,225
2019-02-02T11:02:08.513Z,230
2019-02-02T11:03:18.209Z,235
2019-02-02T11:04:28.111Z,235
2019-02-02T11:05:38.226Z,235
2019-02-02T11:06:48.472Z,245
2019-02-02T11:08:02.046Z,250
2019-02-02T11:09:12.363Z,260
2019-02-02T11:10:25.609Z,275
2019-02-02T11:11:35.452Z,270
2019-02-02T11:12:45.757Z,275
2019-02-02T11:13:55.956Z,275
2019-02-02T11:15:05.994Z,275
2019-02-02T11:16:18.291Z,275
2019-02-02T11:17:28.509Z,265
2019-02-02T11:18:38.556Z,250
2019-02-02T11:19:48.873Z,240
2019-02-02T11:20:59.318Z,235
2019-02-02T11:22:09.850Z,225
2019-02-02T11:23:20.074Z,225
2019-02-02T11:24:30.386Z,220
2019-02-02T11:25:40.778Z,220
2019-02-02T11:26:51.315Z,225
2019-02-02T11:28:01.723Z,225
2019-02-02T11:29:12.322Z,225
2019-02-02T11:30:22.482Z,225
2019-02-02T11:31:32.180Z,225
2019-02-02T11:32:42.115Z,230
2019-02-02T11:33:53.967Z,230
2019-02-02T11:35:03.908Z,230
2019-02-02T11:36:13.840Z,235
2019-02-02T11:37:23.776Z,240
2019-02-02T11:38:33.453Z,240
2019-02-02T11:39:43.130Z,240
2019-02-02T11:40:52.563Z,240
2019-02-02T11:42:02.252Z,235
2019-02-02T11:43:11.952Z,235
2019-02-02T11:44:24.794Z,240
2019-02-02T11:45:34.470Z,245
2019-02-02T11:46:44.412Z,250
2019-02-02T11:47:53.589Z,245
2019-02-02T11:49:03.020Z,240
2019-02-02T11:50:12.711Z,235
2019-02-02T11:51:22.637Z,230
2019-02-02T11:52:32.855Z,225
2019-02-02T11:53:44.440Z,225
2019-02-02T11:54:54.117Z,220
2019-02-02T11:56:04.043Z,215
2019-02-02T11:57:13.716Z,210
2019-02-02T11:58:23.772Z,200
2019-02-02T11:59:33.454Z,195
2019-02-02T12:00:43.202Z,190
2019-02-02T12:01:52.889Z,185
2019-02-02T12:03:04.288Z,175
2019-02-02T12:04:14.159Z,170
2019-02-02T12:05:24.096Z,160
2019-02-02T12:06:33.781Z,160
2019-02-02T12:07:43.712Z,155
2019-02-02T12:08:56.453Z,150
2019-02-02T12:10:06.391Z,150
2019-02-02T12:11:16.066Z,155
2019-02-02T12:12:25.917Z,155
2019-02-02T12:13:35.591Z,160
2019-02-02T12:14:45.016Z,160
2019-02-02T12:15:54.450Z,170
2019-02-02T12:17:03.443Z,180
2019-02-02T12:18:16.662Z,190
2019-02-02T12:19:26.676Z,195
2019-02-02T12:20:38.206Z,200
2019-02-02T12:21:48.159Z,205
2019-02-02T12:22:58.091Z,200
2019-02-02T12:24:21.311Z,205
2019-02-02T12:25:31.007Z,210
2019-02-02T12:26:40.706Z,210
2019-02-02T12:27:50.130Z,215
2019-02-02T12:28:59.806Z,215
2019-02-02T12:30:09.479Z,210
2019-02-02T12:31:19.399Z,200
2019-02-02T12:32:36.196Z,195
2019-02-02T12:33:46.125Z,190
2019-02-02T12:34:55.804Z,195
2019-02-02T12:36:05.481Z,195
2019-02-02T12:37:14.669Z,200
2019-02-02T12:38:24.612Z,200
2019-02-02T12:39:34.548Z,210
2019-02-02T12:40:43.974Z,215
2019-02-02T12:41:53.400Z,220
2019-02-02T12:43:02.845Z,220
2019-02-02T12:44:12.539Z,225
2019-02-02T12:45:21.976Z,220
2019-02-02T12:46:31.418Z,210
2019-02-02T12:47:41.101Z,210
2019-02-02T12:48:51.043Z,195
2019-02-02T12:50:00.728Z,195
2019-02-02T12:51:10.326Z,195
2019-02-02T12:52:20.012Z,190
2019-02-02T12:53:29.458Z,190
2019-02-02T12:54:39.390Z,185
2019-02-02T12:55:48.828Z,185
2019-02-02T12:56:58.511Z,180
2019-02-02T12:58:08.455Z,175
2019-02-02T12:59:18.182Z,175
2019-02-02T13:00:27.942Z,175
2019-02-02T13:01:37.147Z,170
2019-02-02T13:02:48.106Z,165
2019-02-02T13:04:10.183Z,170
2019-02-02T13:05:20.111Z,165
2019-02-02T13:06:29.864Z,165
2019-02-02T13:07:39.294Z,160
2019-02-02T13:08:48.751Z,165
2019-02-02T13:09:58.179Z,165
2019-02-02T13:11:08.356Z,165
2019-02-02T13:12:17.786Z,160
2019-02-02T13:13:27.466Z,160
2019-02-02T13:14:37.145Z,160
2019-02-02T13:15:46.848Z,155
2019-02-02T13:17:02.430Z,155
2019-02-02T13:18:11.909Z,160
2019-02-02T13:19:23.370Z,160
2019-02-02T13:20:32.808Z,160
2019-02-02T13:21:42.758Z,165
2019-02-02T13:22:52.693Z,165
2019-02-02T13:24:02.376Z,165
2019-02-02T13:25:12.356Z,160
2019-02-02T13:26:22.290Z,150
2019-02-02T13:27:31.961Z,150
2019-02-02T13:28:41.889Z,155
2019-02-02T13:29:54.658Z,155
2019-02-02T13:31:04.337Z,155
2019-02-02T13:32:14.378Z,150
2019-02-02T13:33:24.300Z,150
2019-02-02T13:34:34.254Z,145
2019-02-02T13:35:43.951Z,155
2019-02-02T13:36:53.633Z,150
2019-02-02T13:38:03.555Z,145
2019-02-02T13:39:13.231Z,140
2019-02-02T13:40:22.655Z,140
2019-02-02T13:41:32.579Z,145
2019-02-02T13:42:42.659Z,155
2019-02-02T13:43:52.093Z,155
2019-02-02T13:45:01.522Z,155
2019-02-02T13:46:11.216Z,155
2019-02-02T13:47:20.891Z,155
2019-02-02T13:48:30.561Z,160
2019-02-02T13:49:40.514Z,160
2019-02-02T13:50:50.698Z,160
2019-02-02T13:52:00.140Z,155
2019-02-02T13:53:09.835Z,155
2019-02-02T13:54:19.513Z,155
2019-02-02T13:55:29.453Z,150
2019-02-02T13:56:38.874Z,145
2019-02-02T13:57:48.562Z,140
2019-02-02T13:58:57.990Z,130
2019-02-02T14:00:07.537Z,125
2019-02-02T14:01:17.212Z,120
2019-02-02T14:02:26.953Z,115
2019-02-02T14:03:36.879Z,115
2019-02-02T14:04:46.063Z,110
2019-02-02T14:05:55.255Z,105
2019-02-02T14:07:04.191Z,105
2019-02-02T14:08:13.891Z,100
2019-02-02T14:09:23.325Z,100
2019-02-02T14:10:32.996Z,95
2019-02-02T14:11:42.977Z,90
2019-02-02T14:12:52.414Z,90
2019-02-02T14:14:02.200Z,90
2019-02-02T14:15:11.376Z,85
2019-02-02T14:16:20.798Z,85
2019-02-02T14:17:30.743Z,90
2019-02-02T14:18:40.703Z,90
2019-02-02T14:19:50.376Z,85
2019-02-02T14:20:59.818Z,80
2019-02-02T14:22:08.994Z,80
2019-02-02T14:23:18.912Z,80
2019-02-02T14:24:28.639Z,80
2019-02-02T14:25:38.592Z,80
2019-02-02T14:26:48.292Z,80
2019-02-02T14:27:58.234Z,75
2019-02-02T14:29:07.697Z,80
2019-02-02T14:30:17.119Z,80
2019-02-02T14:31:26.558Z,75
2019-02-02T14:32:36.263Z,75
2019-02-02T14:33:45.948Z,75
2019-02-02T14:34:55.377Z,70
2019-02-02T14:36:06.760Z,70
2019-02-02T14:37:15.929Z,70
2019-02-02T14:38:27.323Z,70
2019-02-02T14:39:37.001Z,65
2019-02-02T14:40:46.932Z,65
2019-02-02T14:41:56.370Z,65
2019-02-02T14:43:05.815Z,65
2019-02-02T14:44:15.033Z,65
2019-02-02T14:45:27.198Z,65
2019-02-02T14:46:36.488Z,65
2019-02-02T14:47:46.451Z,60
2019-02-02T14:48:56.388Z,60
2019-02-02T14:50:05.825Z,60
2019-02-02T14:51:15.267Z,60
2019-02-02T14:52:24.951Z,60
2019-02-02T14:53:34.630Z,60
2019-02-02T14:54:44.303Z,60
2019-02-02T14:55:55.401Z,60
2019-02-02T14:57:05.331Z,60
2019-02-02T14:58:15.272Z,60
2019-02-02T14:59:25.197Z,55
2019-02-02T15:00:34.873Z,55
2019-02-02T15:01:44.803Z,55
2019-02-02T15:02:54.224Z,50
2019-02-02T15:04:04.216Z,50
2019-02-02T15:05:14.137Z,50
2019-02-02T15:06:23.580Z,45
2019-02-02T15:07:33.301Z,45
2019-02-02T15:08:43.008Z,45
2019-02-02T15:09:52.694Z,45
2019-02-02T15:11:01.628Z,40
2019-02-02T15:12:11.055Z,40
2019-02-02T15:13:20.988Z,40
2019-02-02T15:14:30.920Z,40
2019-02-02T15:15:40.864Z,40
2019-02-02T15:16:50.292Z,40
2019-02-02T15:18:00.354Z,40
2019-02-02T15:19:09.802Z,40
2019-02-02T15:20:22.009Z,40
2019-02-02T15:21:32.267Z,40
2019-02-02T15:22:42.325Z,40
2019-02-02T15:23:54.833Z,40
2019-02-02T15:25:04.276Z,40
2019-02-02T15:26:14.208Z,35
2019-02-02T15:27:24.145Z,35
2019-02-02T15:28:33.826Z,35
2019-02-02T15:29:43.756Z,35
2019-02-02T15:30:53.694Z,30
2019-02-02T15:32:03.694Z,30
2019-02-02T15:33:13.384Z,25
2019-02-02T15:34:23.438Z,25
2019-02-02T15:35:32.880Z,25
2019-02-02T15:36:42.799Z,25
2019-02-02T15:37:52.501Z,25
2019-02-02T15:39:02.425Z,25
2019-02-02T15:40:12.097Z,25
2019-02-02T15:41:21.782Z,25
2019-02-02T15:42:31.466Z,25
2019-02-02T15:43:41.398Z,20
2019-02-02T15:44:51.086Z,20
2019-02-02T15:46:00.781Z,15
2019-02-02T15:47:10.717Z,15
2019-02-02T15:48:20.672Z,15
2019-02-02T15:49:30.612Z,10
2019-02-02T15:50:40.544Z,10
2019-02-02T15:51:49.716Z,10
2019-02-02T15:52:59.150Z,10
2019-02-02T15:54:08.713Z,10
2019-02-02T15:55:17.896Z,10
2019-02-02T15:56:27.568Z,10
2019-02-02T15:57:36.740Z,5
2019-02-02T15:58:46.423Z,5
2019-02-02T15:59:55.642Z,5
2019-02-02T16:01:04.813Z,5
2019-02-02T16:02:14.734Z,5
2019-02-02T16:03:24.418Z,5
2019-02-02T16:04:33.588Z,5
2019-02-02T16:05:43.519Z,5
2019-02-02T16:06:53.192Z,5
2019-02-02T16:08:03.243Z,5
2019-02-02T16:09:12.935Z,5
2019-02-02T16:10:24.742Z,0
2019-02-02T16:11:34.432Z,0
2019-02-02T16:12:44.111Z,0
2019-02-02T16:13:53.813Z,0
2019-02-02T16:15:03.751Z,0
2019-02-02T16:16:13.728Z,0
2019-02-02T16:17:23.176Z,0
2019-02-02T16:18:32.612Z,0
2019-02-02T16:19:42.043Z,0
2019-02-02T16:20:52.161Z,0
2019-02-02T16:22:01.870Z,0
2019-02-02T16:23:11.547Z,0
2019-02-02T16:24:21.487Z,0
2019-02-02T16:25:31.161Z,0
2019-02-02T16:26:40.838Z,0
2019-02-02T16:27:50.782Z,0
2019-02-02T16:29:00.237Z,0
2019-02-02T16:30:10.167Z,0
2019-02-02T16:31:19.602Z,0
2019-02-02T16:32:29.586Z,0
2019-02-02T16:33:39.258Z,0
2019-02-02T16:34:48.681Z,0
2019-02-02T16:35:58.615Z,0
2019-02-02T16:37:08.574Z,0
2019-02-02T16:38:18.262Z,0
2019-02-02T16:39:28.206Z,0
2019-02-02T16:40:37.647Z,0
2019-02-02T16:41:47.343Z,0
2019-02-02T16:42:58.644Z,0